Aérodrome :
LOGIN :

S'inscrire | Disclaimer

   EN    FR    IT 

 










Légende :    VFR   VFR Marginal   IFR   IFR Intensif   IFR Très Intensif
Visi : 
Plafond : 
>= 8 km
>= 3000ft
5 à 8 km
1000 à 3000 ft
1500m à 5 km
500 à 1000 ft
800 à 1500m
200 à 500 ft
< 800m
< 200 ft
Symboles :   Orages  Brouillard  Fortes neiges  Fortes précipitations  Vent > 20 kt
SIGMETs :   Divers  Orages  Givrage  Turbulence  Onde Orograph.  Cendres Volcan.






- Altitude de l'aérodrome : 416 ft
- Code IATA : OVD


LEAS - Asturias

DERNIER METAR :
  • 112100Z 28019KT 250V310 9999 SCT036 SCT055 11/06 Q1022 TEMPO RA

METARs EXPIRÉS :
  • 112030Z 26015G25KT 230V310 9999 SCT036 SCT055 11/06 Q1023 TEMPO RA
  • 112000Z 27016G28KT 9999 SCT036 SCT065 11/06 Q1023 TEMPO RA
  • 111930Z 27016KT 230V290 9999 SCT036 SCT060 11/06 Q1023 TEMPO RA
  • 111900Z 27015KT 240V300 9999 SCT040 SCT060 11/06 Q1023 TEMPO RA
  • 111830Z 28016G28KT 9999 -RA SCT035 SCT060 11/06 Q1023 TEMPO RA
  • 111821Z 28017G28KT 240V320 9999 -RA SCT035 SCT060 11/07 Q1023 TEMPO RA

TAF TAF LEAS
Valide du 11 à 21h jusqu'au 12 à 21h UTC


112000Z 1121/1221 24012KT 9999 BKN040 TX14/1221Z TN09/1203Z
TEMPO 1121/1221 3000 RA
TEMPO 1212/1221 1500 +RA BKN010 BKN014
TEMPO 1121/1209 25015G25KT
TEMPO 1209/1221 27020G35KT
PROB40
TEMPO 1212/1221 27025G40KT



MET'MAP, la Météo Aéronautique d'un coup d'oeil ! - Copyright ORBIFLY Décembre 2007 - Disclaimer

ORBIFLY MET'MAP TEAM :

Programmation & Développement : Alexandra Zaïnal
Sur une idée originale de : Baudouin d'Aumeries
Assistance à la programmation : Marc-Olivier Méhu
Soutien technique & logistique : Manuel Goepfert

Contact : metmap@orbifly.com




SOURCES & CREDITS :

   NOAA